createdAt,value
2017-09-03T00:00:54.672Z,11.29
2017-09-03T00:01:54.686Z,11.27
2017-09-03T00:02:54.709Z,11.27
2017-09-03T00:03:54.742Z,11.17
2017-09-03T00:04:54.752Z,11.17
2017-09-03T00:05:54.768Z,11.26
2017-09-03T00:06:54.844Z,11.15
2017-09-03T00:07:54.816Z,11.11
2017-09-03T00:08:54.827Z,11.18
2017-09-03T00:09:54.849Z,11.11
2017-09-03T00:10:54.868Z,11.05
2017-09-03T00:11:54.894Z,11.19
2017-09-03T00:12:54.907Z,11.14
2017-09-03T00:13:54.924Z,11.11
2017-09-03T00:14:55.266Z,11.26
2017-09-03T00:15:54.965Z,11.22
2017-09-03T00:16:54.986Z,11.27
2017-09-03T00:17:55.020Z,11.26
2017-09-03T00:18:55.029Z,11.19
2017-09-03T00:19:55.058Z,11.29
2017-09-03T00:20:55.092Z,11.22
2017-09-03T00:21:55.094Z,11.19
2017-09-03T00:22:55.433Z,11.19
2017-09-03T00:23:55.137Z,11.27
2017-09-03T00:24:55.203Z,11.22
2017-09-03T00:25:55.165Z,11.25
2017-09-03T00:26:55.191Z,11.22
2017-09-03T00:27:55.212Z,11.29
2017-09-03T00:28:55.232Z,11.29
2017-09-03T00:29:55.247Z,11.08
2017-09-03T00:30:55.274Z,11.04
2017-09-03T00:31:55.295Z,11.08
2017-09-03T00:32:55.313Z,10.96
2017-09-03T00:33:55.341Z,11
2017-09-03T00:34:55.352Z,11.04
2017-09-03T00:35:55.368Z,11.08
2017-09-03T00:36:55.391Z,11.07
2017-09-03T00:37:55.414Z,11.15
2017-09-03T00:38:55.431Z,11.1
2017-09-03T00:39:55.453Z,11.07
2017-09-03T00:40:55.477Z,11.23
2017-09-03T00:41:55.493Z,11.26
2017-09-03T00:42:55.503Z,11.36
2017-09-03T00:43:55.531Z,11.29
2017-09-03T00:44:55.545Z,11.33
2017-09-03T00:45:55.570Z,11.29
2017-09-03T00:46:55.589Z,11.35
2017-09-03T00:47:55.615Z,11.41
2017-09-03T00:48:55.633Z,11.41
2017-09-03T00:49:55.646Z,11.18
2017-09-03T00:50:55.682Z,11.26
2017-09-03T00:51:55.693Z,11.22
2017-09-03T00:52:55.712Z,11.18
2017-09-03T00:53:55.746Z,11.15
2017-09-03T00:54:55.767Z,11.14
2017-09-03T00:55:55.774Z,11.11
2017-09-03T00:56:55.790Z,11.05
2017-09-03T00:57:55.822Z,11.02
2017-09-03T00:58:55.830Z,11.05
2017-09-03T00:59:55.850Z,11.07
2017-09-03T01:00:55.870Z,11
2017-09-03T01:01:56.204Z,11.1
2017-09-03T01:02:55.915Z,11.11
2017-09-03T01:03:55.926Z,10.99
2017-09-03T01:04:55.945Z,11.04
2017-09-03T01:05:55.966Z,11.05
2017-09-03T01:06:55.990Z,11.04
2017-09-03T01:07:56.051Z,11
2017-09-03T01:08:56.034Z,11.12
2017-09-03T01:09:56.048Z,11.08
2017-09-03T01:10:56.064Z,11.07
2017-09-03T01:11:56.411Z,11.1
2017-09-03T01:12:56.111Z,11.04
2017-09-03T01:13:56.126Z,11.11
2017-09-03T01:14:56.152Z,11.08
2017-09-03T01:15:56.484Z,11.08
2017-09-03T01:16:56.204Z,11.08
2017-09-03T01:17:56.521Z,11.05
2017-09-03T01:18:56.271Z,11.07
2017-09-03T01:19:56.242Z,11.05
2017-09-03T01:20:56.586Z,11.12
2017-09-03T01:21:56.598Z,11.05
2017-09-03T01:22:56.303Z,11.04
2017-09-03T01:23:56.326Z,11.1
2017-09-03T01:24:56.354Z,11.04
2017-09-03T01:25:56.374Z,11.08
2017-09-03T01:26:56.380Z,10.97
2017-09-03T01:27:56.404Z,11.07
2017-09-03T01:28:56.423Z,10.97
2017-09-03T01:29:56.438Z,10.99
2017-09-03T01:30:56.460Z,11.04
2017-09-03T01:31:56.791Z,10.92
2017-09-03T01:32:56.810Z,10.96
2017-09-03T01:33:56.520Z,10.9
2017-09-03T01:34:56.588Z,10.92
2017-09-03T01:35:56.874Z,10.96
2017-09-03T01:36:56.578Z,10.93
2017-09-03T01:37:56.916Z,10.93
2017-09-03T01:38:56.617Z,10.9
2017-09-03T01:39:56.648Z,10.99
2017-09-03T01:40:56.667Z,10.92
2017-09-03T01:41:56.989Z,11.08
2017-09-03T01:42:56.698Z,10.96
2017-09-03T01:43:56.714Z,11.05
2017-09-03T01:44:56.742Z,11.07
2017-09-03T01:45:57.072Z,10.99
2017-09-03T01:46:57.094Z,11.11
2017-09-03T01:47:57.109Z,11.11
2017-09-03T01:48:57.141Z,11.07
2017-09-03T01:49:56.840Z,11.07
2017-09-03T01:50:57.174Z,10.99
2017-09-03T01:51:56.879Z,11.1
2017-09-03T01:52:56.899Z,11
2017-09-03T01:53:56.921Z,11.02
2017-09-03T01:54:56.939Z,11.08
2017-09-03T01:55:56.960Z,10.94
2017-09-03T01:56:56.984Z,11.02
2017-09-03T01:57:56.989Z,10.86
2017-09-03T01:58:57.062Z,10.99
2017-09-03T01:59:57.382Z,10.96
2017-09-03T02:00:57.367Z,10.96
2017-09-03T02:01:57.397Z,11.07
2017-09-03T02:02:57.100Z,11.05
2017-09-03T02:03:57.115Z,11
2017-09-03T02:04:57.140Z,11
2017-09-03T02:05:57.146Z,11.04
2017-09-03T02:06:57.171Z,11.05
2017-09-03T02:07:57.190Z,11.07
2017-09-03T02:08:57.265Z,11
2017-09-03T02:09:57.222Z,10.96
2017-09-03T02:10:57.246Z,10.97
2017-09-03T02:11:57.274Z,10.96
2017-09-03T02:12:57.299Z,11.1
2017-09-03T02:13:57.331Z,11.1
2017-09-03T02:14:57.343Z,11.1
2017-09-03T02:15:57.350Z,11.07
2017-09-03T02:16:57.681Z,11.05
2017-09-03T02:17:57.705Z,10.94
2017-09-03T02:18:57.406Z,11.07
2017-09-03T02:19:57.419Z,10.93
2017-09-03T02:20:57.457Z,10.94
2017-09-03T02:21:57.458Z,10.93
2017-09-03T02:22:57.482Z,10.96
2017-09-03T02:23:57.513Z,10.96
2017-09-03T02:24:57.534Z,10.93
2017-09-03T02:25:57.539Z,11.04
2017-09-03T02:26:57.562Z,10.96
2017-09-03T02:27:57.577Z,10.99
2017-09-03T02:28:57.603Z,10.93
2017-09-03T02:29:57.615Z,10.97
2017-09-03T02:30:57.964Z,10.97
2017-09-03T02:31:57.687Z,10.93
2017-09-03T02:32:57.701Z,10.87
2017-09-03T02:33:58.014Z,10.9
2017-09-03T02:34:57.719Z,10.92
2017-09-03T02:35:57.737Z,10.87
2017-09-03T02:36:57.752Z,10.86
2017-09-03T02:37:57.785Z,10.89
2017-09-03T02:38:57.794Z,10.89
2017-09-03T02:39:57.826Z,10.93
2017-09-03T02:40:57.837Z,10.9
2017-09-03T02:41:57.857Z,10.84
2017-09-03T02:42:57.874Z,10.86
2017-09-03T02:43:57.954Z,10.87
2017-09-03T02:44:57.924Z,10.86
2017-09-03T02:45:57.936Z,10.92
2017-09-03T02:46:57.947Z,10.87
2017-09-03T02:47:57.990Z,10.79
2017-09-03T02:48:58.372Z,10.9
2017-09-03T02:49:58.011Z,10.96
2017-09-03T02:50:58.031Z,10.87
2017-09-03T02:51:58.054Z,10.9
2017-09-03T02:52:58.076Z,10.84
2017-09-03T02:53:58.089Z,10.78
2017-09-03T02:54:58.736Z,10.82
2017-09-03T02:55:58.120Z,10.75
2017-09-03T02:56:58.260Z,10.79
2017-09-03T02:57:58.163Z,10.74
2017-09-03T02:58:58.335Z,10.78
2017-09-03T02:59:58.201Z,10.75
2017-09-03T03:00:58.225Z,10.75
2017-09-03T03:01:58.247Z,10.87
2017-09-03T03:02:58.567Z,10.82
2017-09-03T03:03:58.622Z,10.76
2017-09-03T03:04:58.306Z,10.81
2017-09-03T03:05:58.329Z,10.84
2017-09-03T03:06:58.662Z,10.89
2017-09-03T03:07:58.360Z,10.86
2017-09-03T03:08:58.384Z,10.78
2017-09-03T03:09:58.407Z,10.74
2017-09-03T03:10:58.420Z,10.75
2017-09-03T03:11:58.445Z,10.78
2017-09-03T03:12:58.457Z,10.76
2017-09-03T03:13:58.524Z,10.86
2017-09-03T03:14:58.501Z,10.86
2017-09-03T03:15:58.510Z,10.9
2017-09-03T03:16:58.536Z,10.89
2017-09-03T03:17:58.870Z,10.84
2017-09-03T03:18:58.590Z,10.87
2017-09-03T03:19:58.591Z,10.79
2017-09-03T03:20:58.614Z,10.74
2017-09-03T03:21:58.631Z,10.82
2017-09-03T03:22:58.662Z,10.79
2017-09-03T03:23:58.682Z,10.78
2017-09-03T03:24:58.687Z,10.76
2017-09-03T03:25:58.706Z,10.82
2017-09-03T03:26:58.727Z,10.78
2017-09-03T03:27:58.749Z,10.78
2017-09-03T03:28:58.765Z,10.74
2017-09-03T03:29:59.106Z,10.75
2017-09-03T03:30:59.124Z,10.72
2017-09-03T03:31:58.835Z,10.63
2017-09-03T03:32:58.846Z,10.61
2017-09-03T03:33:58.872Z,10.64
2017-09-03T03:34:58.882Z,10.59
2017-09-03T03:35:58.903Z,10.64
2017-09-03T03:36:58.935Z,10.61
2017-09-03T03:37:58.944Z,10.61
2017-09-03T03:38:58.971Z,10.64
2017-09-03T03:39:58.990Z,10.61
2017-09-03T03:40:59.004Z,10.64
2017-09-03T03:41:59.020Z,10.72
2017-09-03T03:42:59.037Z,10.69
2017-09-03T03:43:59.064Z,10.69
2017-09-03T03:44:59.400Z,10.69
2017-09-03T03:45:59.102Z,10.72
2017-09-03T03:46:59.110Z,10.69
2017-09-03T03:47:59.135Z,10.78
2017-09-03T03:48:59.157Z,10.76
2017-09-03T03:49:59.197Z,10.72
2017-09-03T03:50:59.521Z,10.76
2017-09-03T03:51:59.221Z,10.81
2017-09-03T03:52:59.231Z,10.81
2017-09-03T03:53:59.265Z,10.78
2017-09-03T03:54:59.269Z,10.75
2017-09-03T03:55:59.289Z,10.78
2017-09-03T03:56:59.309Z,10.79
2017-09-03T03:57:59.328Z,10.74
2017-09-03T03:58:59.357Z,10.72
2017-09-03T03:59:59.685Z,10.81
2017-09-03T04:00:59.386Z,10.69
2017-09-03T04:01:59.406Z,10.79
2017-09-03T04:02:59.433Z,10.74
2017-09-03T04:03:59.447Z,10.78
2017-09-03T04:04:59.485Z,10.74
2017-09-03T04:05:59.490Z,10.75
2017-09-03T04:06:59.511Z,10.76
2017-09-03T04:07:59.522Z,10.71
2017-09-03T04:08:59.543Z,10.76
2017-09-03T04:09:59.889Z,10.75
2017-09-03T04:10:59.594Z,10.81
2017-09-03T04:11:59.915Z,10.71
2017-09-03T04:12:59.616Z,10.84
2017-09-03T04:13:59.648Z,10.79
2017-09-03T04:14:59.977Z,10.69
2017-09-03T04:15:59.683Z,10.74
2017-09-03T04:16:59.716Z,10.81
2017-09-03T04:17:59.717Z,10.72
2017-09-03T04:18:59.794Z,10.79
2017-09-03T04:19:59.775Z,10.72
2017-09-03T04:20:59.775Z,10.74
2017-09-03T04:21:59.810Z,10.78
2017-09-03T04:22:59.827Z,10.72
2017-09-03T04:23:59.854Z,10.78
2017-09-03T04:24:59.868Z,10.68
2017-09-03T04:26:00.492Z,10.72
2017-09-03T04:26:59.904Z,10.78
2017-09-03T04:27:59.913Z,10.76
2017-09-03T04:28:59.929Z,10.84
2017-09-03T04:29:59.948Z,10.75
2017-09-03T04:30:59.971Z,10.84
2017-09-03T04:32:00.006Z,10.78
2017-09-03T04:33:00.322Z,10.81
2017-09-03T04:34:00.343Z,10.82
2017-09-03T04:35:00.056Z,10.87
2017-09-03T04:36:00.116Z,10.76
2017-09-03T04:37:00.087Z,10.75
2017-09-03T04:38:00.411Z,10.76
2017-09-03T04:39:00.122Z,10.76
2017-09-03T04:40:00.467Z,10.78
2017-09-03T04:41:00.483Z,10.82
2017-09-03T04:42:00.182Z,10.81
2017-09-03T04:43:00.214Z,10.84
2017-09-03T04:44:00.224Z,10.82
2017-09-03T04:45:00.244Z,10.9
2017-09-03T04:46:00.264Z,10.84
2017-09-03T04:47:00.284Z,10.82
2017-09-03T04:48:00.311Z,10.86
2017-09-03T04:49:00.322Z,10.89
2017-09-03T04:50:00.658Z,10.84
2017-09-03T04:51:00.361Z,10.82
2017-09-03T04:52:00.388Z,10.86
2017-09-03T04:53:00.402Z,10.9
2017-09-03T04:54:00.609Z,10.81
2017-09-03T04:55:00.431Z,10.9
2017-09-03T04:56:00.476Z,10.89
2017-09-03T04:57:00.478Z,10.9
2017-09-03T04:58:00.501Z,10.84
2017-09-03T04:59:00.518Z,10.86
2017-09-03T05:00:00.547Z,10.87
2017-09-03T05:01:00.569Z,10.84
2017-09-03T05:02:00.584Z,10.86
2017-09-03T05:03:00.600Z,10.87
2017-09-03T05:04:00.620Z,10.92
2017-09-03T05:05:00.637Z,10.96
2017-09-03T05:06:00.665Z,10.9
2017-09-03T05:07:00.721Z,10.93
2017-09-03T05:08:01.044Z,10.93
2017-09-03T05:09:00.721Z,10.92
2017-09-03T05:10:00.732Z,10.89
2017-09-03T05:11:00.768Z,10.94
2017-09-03T05:12:00.773Z,10.96
2017-09-03T05:13:00.792Z,10.96
2017-09-03T05:14:00.810Z,10.94
2017-09-03T05:15:00.825Z,10.94
2017-09-03T05:16:01.157Z,10.96
2017-09-03T05:17:00.875Z,11.1
2017-09-03T05:18:00.890Z,11.11
2017-09-03T05:19:00.920Z,11.04
2017-09-03T05:20:00.933Z,11.07
2017-09-03T05:21:00.960Z,11.02
2017-09-03T05:22:01.284Z,11.05
2017-09-03T05:23:00.980Z,11.14
2017-09-03T05:24:01.528Z,11.08
2017-09-03T05:25:01.031Z,11.17
2017-09-03T05:26:01.055Z,11.17
2017-09-03T05:27:01.086Z,11.14
2017-09-03T05:28:01.092Z,11.05
2017-09-03T05:29:01.104Z,11.12
2017-09-03T05:30:01.122Z,11.08
2017-09-03T05:31:01.150Z,11.19
2017-09-03T05:32:01.167Z,11.22
2017-09-03T05:33:01.197Z,11.23
2017-09-03T05:34:01.208Z,11.23
2017-09-03T05:35:01.225Z,11.22
2017-09-03T05:36:01.241Z,11.27
2017-09-03T05:37:01.585Z,11.29
2017-09-03T05:38:01.287Z,11.27
2017-09-03T05:39:01.359Z,11.33
2017-09-03T05:40:01.338Z,11.27
2017-09-03T05:41:01.352Z,11.29
2017-09-03T05:42:01.379Z,11.22
2017-09-03T05:43:01.381Z,11.23
2017-09-03T05:44:01.400Z,11.19
2017-09-03T05:45:02.058Z,11.23
2017-09-03T05:46:01.453Z,11.19
2017-09-03T05:47:01.467Z,11.12
2017-09-03T05:48:01.490Z,11.23
2017-09-03T05:49:01.505Z,11.18
2017-09-03T05:50:01.526Z,11.26
2017-09-03T05:51:01.543Z,11.25
2017-09-03T05:52:01.558Z,11.29
2017-09-03T05:53:01.576Z,11.35
2017-09-03T05:54:01.607Z,11.36
2017-09-03T05:55:01.617Z,11.35
2017-09-03T05:56:01.639Z,11.41
2017-09-03T05:57:01.671Z,11.51
2017-09-03T05:58:01.750Z,11.43
2017-09-03T05:59:01.702Z,11.5
2017-09-03T06:00:01.916Z,11.37
2017-09-03T06:01:01.733Z,11.45
2017-09-03T06:02:02.402Z,11.47
2017-09-03T06:03:01.780Z,11.37
2017-09-03T06:04:01.799Z,11.47
2017-09-03T06:05:01.832Z,11.33
2017-09-03T06:06:01.837Z,11.43
2017-09-03T06:07:01.859Z,11.5
2017-09-03T06:08:01.875Z,11.43
2017-09-03T06:09:02.210Z,11.45
2017-09-03T06:10:01.933Z,11.52
2017-09-03T06:11:01.950Z,11.57
2017-09-03T06:12:01.955Z,11.62
2017-09-03T06:13:01.994Z,11.66
2017-09-03T06:14:02.363Z,11.69
2017-09-03T06:15:02.017Z,11.72
2017-09-03T06:16:02.046Z,11.78
2017-09-03T06:17:02.060Z,11.81
2017-09-03T06:18:02.072Z,11.9
2017-09-03T06:19:02.114Z,11.86
2017-09-03T06:20:02.124Z,12.02
2017-09-03T06:21:02.148Z,12.03
2017-09-03T06:22:02.154Z,12.09
2017-09-03T06:23:02.179Z,12.03
2017-09-03T06:24:02.499Z,12.12
2017-09-03T06:25:02.211Z,12
2017-09-03T06:26:02.230Z,12.04
2017-09-03T06:27:02.250Z,12.15
2017-09-03T06:28:02.286Z,12.24
2017-09-03T06:29:02.294Z,12.12
2017-09-03T06:30:02.314Z,12.04
2017-09-03T06:31:02.388Z,12.02
2017-09-03T06:32:02.356Z,11.97
2017-09-03T06:33:02.382Z,12.09
2017-09-03T06:34:02.407Z,12.15
2017-09-03T06:35:02.441Z,12.29
2017-09-03T06:36:02.459Z,12.32
2017-09-03T06:37:02.455Z,12.25
2017-09-03T06:38:02.489Z,12.28
2017-09-03T06:39:02.497Z,12.24
2017-09-03T06:40:02.519Z,12.29
2017-09-03T06:41:02.545Z,12.32
2017-09-03T06:42:02.556Z,12.22
2017-09-03T06:43:02.577Z,12.4
2017-09-03T06:44:02.600Z,12.43
2017-09-03T06:45:02.623Z,12.49
2017-09-03T06:46:02.637Z,12.58
2017-09-03T06:47:02.978Z,12.68
2017-09-03T06:48:02.677Z,12.65
2017-09-03T06:49:02.707Z,12.61
2017-09-03T06:50:02.766Z,12.79
2017-09-03T06:51:02.749Z,12.85
2017-09-03T06:52:02.772Z,12.85
2017-09-03T06:53:02.783Z,12.94
2017-09-03T06:54:02.806Z,12.97
2017-09-03T06:55:02.826Z,12.9
2017-09-03T06:56:02.855Z,12.85
2017-09-03T06:57:03.186Z,12.97
2017-09-03T06:58:02.893Z,13.03
2017-09-03T06:59:02.905Z,13.15
2017-09-03T07:00:02.927Z,13.49
2017-09-03T07:01:02.957Z,13.68
2017-09-03T07:02:02.971Z,13.79
2017-09-03T07:03:03.314Z,13.99
2017-09-03T07:04:03.330Z,14.18
2017-09-03T07:05:03.347Z,14.3
2017-09-03T07:06:03.060Z,14.18
2017-09-03T07:07:03.122Z,14.32
2017-09-03T07:08:03.102Z,14.32
2017-09-03T07:09:03.447Z,14.59
2017-09-03T07:10:03.155Z,14.7
2017-09-03T07:11:03.164Z,14.78
2017-09-03T07:12:03.196Z,14.48
2017-09-03T07:13:03.228Z,14.59
2017-09-03T07:14:03.229Z,14.73
2017-09-03T07:15:03.251Z,14.78
2017-09-03T07:16:03.590Z,14.86
2017-09-03T07:17:03.295Z,14.86
2017-09-03T07:18:03.331Z,14.81
2017-09-03T07:19:03.644Z,14.77
2017-09-03T07:20:03.352Z,14.68
2017-09-03T07:21:03.392Z,14.59
2017-09-03T07:22:03.457Z,14.37
2017-09-03T07:23:03.750Z,14.18
2017-09-03T07:24:03.445Z,13.97
2017-09-03T07:25:03.784Z,13.96
2017-09-03T07:26:03.496Z,13.99
2017-09-03T07:27:03.828Z,14.03
2017-09-03T07:28:03.542Z,14.14
2017-09-03T07:29:03.558Z,14.07
2017-09-03T07:30:03.902Z,13.93
2017-09-03T07:31:03.598Z,13.89
2017-09-03T07:32:03.640Z,13.74
2017-09-03T07:33:03.955Z,13.71
2017-09-03T07:34:03.667Z,13.72
2017-09-03T07:35:03.698Z,13.7
2017-09-03T07:36:03.712Z,13.47
2017-09-03T07:37:03.776Z,13.47
2017-09-03T07:38:03.823Z,13.53
2017-09-03T07:39:03.781Z,13.7
2017-09-03T07:40:03.805Z,13.85
2017-09-03T07:41:03.824Z,13.83
2017-09-03T07:42:04.149Z,13.71
2017-09-03T07:43:03.869Z,13.81
2017-09-03T07:44:03.885Z,13.79
2017-09-03T07:45:03.906Z,13.87
2017-09-03T07:46:03.932Z,13.87
2017-09-03T07:47:04.264Z,13.81
2017-09-03T07:48:04.282Z,13.86
2017-09-03T07:49:03.998Z,14.05
2017-09-03T07:50:04.644Z,14.1
2017-09-03T07:51:04.034Z,14.2
2017-09-03T07:52:04.062Z,14.32
2017-09-03T07:53:04.094Z,14.32
2017-09-03T07:54:04.416Z,14.48
2017-09-03T07:55:04.198Z,14.6
2017-09-03T07:56:04.146Z,14.32
2017-09-03T07:57:04.165Z,14.23
2017-09-03T07:58:04.197Z,14.11
2017-09-03T07:59:04.215Z,13.92
2017-09-03T08:00:04.236Z,13.96
2017-09-03T08:01:04.260Z,13.97
2017-09-03T08:02:04.597Z,14.1
2017-09-03T08:03:04.300Z,14.18
2017-09-03T08:04:04.332Z,14.37
2017-09-03T08:05:04.345Z,14.53
2017-09-03T08:06:04.361Z,14.62
2017-09-03T08:07:04.388Z,14.82
2017-09-03T08:08:04.414Z,14.79
2017-09-03T08:09:04.427Z,14.92
2017-09-03T08:10:04.451Z,15.04
2017-09-03T08:11:04.469Z,15.19
2017-09-03T08:12:04.492Z,15.35
2017-09-03T08:13:04.527Z,15.21
2017-09-03T08:14:04.544Z,15.03
2017-09-03T08:15:04.567Z,14.88
2017-09-03T08:16:04.581Z,14.66
2017-09-03T08:17:04.921Z,14.73
2017-09-03T08:18:04.631Z,14.86
2017-09-03T08:19:04.960Z,14.96
2017-09-03T08:20:04.680Z,14.88
2017-09-03T08:21:04.704Z,15.03
2017-09-03T08:22:04.713Z,15.24
2017-09-03T08:23:04.745Z,15.39
2017-09-03T08:24:04.758Z,15.59
2017-09-03T08:25:05.101Z,15.82
2017-09-03T08:26:05.121Z,15.95
2017-09-03T08:27:04.882Z,16.32
2017-09-03T08:28:05.170Z,16.64
2017-09-03T08:29:04.873Z,16.75
2017-09-03T08:30:05.217Z,16.72
2017-09-03T08:31:04.915Z,16.66
2017-09-03T08:32:04.958Z,16.53
2017-09-03T08:33:04.969Z,16.56
2017-09-03T08:34:04.985Z,16.41
2017-09-03T08:35:05.011Z,16.51
2017-09-03T08:36:05.034Z,16.54
2017-09-03T08:37:05.058Z,16.71
2017-09-03T08:38:05.080Z,16.78
2017-09-03T08:39:05.406Z,16.84
2017-09-03T08:40:05.124Z,16.58
2017-09-03T08:41:05.147Z,16.54
2017-09-03T08:42:05.486Z,16.39
2017-09-03T08:43:05.835Z,16.2
2017-09-03T08:44:05.378Z,16.01
2017-09-03T08:45:05.256Z,15.98
2017-09-03T08:46:05.578Z,15.98
2017-09-03T08:47:05.286Z,16.04
2017-09-03T08:48:05.307Z,16.12
2017-09-03T08:49:05.649Z,16.42
2017-09-03T08:50:05.353Z,16.39
2017-09-03T08:51:05.381Z,16.35
2017-09-03T08:52:05.404Z,16.32
2017-09-03T08:53:05.421Z,16.17
2017-09-03T08:54:05.452Z,16.13
2017-09-03T08:55:05.467Z,16.08
2017-09-03T08:56:05.496Z,16.17
2017-09-03T08:57:05.513Z,16.49
2017-09-03T08:58:05.539Z,16.66
2017-09-03T08:59:05.566Z,16.49
2017-09-03T09:00:05.589Z,16.17
2017-09-03T09:01:05.684Z,16.39
2017-09-03T09:02:05.635Z,16.32
2017-09-03T09:03:05.664Z,16.71
2017-09-03T09:04:05.678Z,16.32
2017-09-03T09:05:06.022Z,16.56
2017-09-03T09:06:05.732Z,16.41
2017-09-03T09:07:05.756Z,16.26
2017-09-03T09:08:05.777Z,16.39
2017-09-03T09:09:05.803Z,16.42
2017-09-03T09:10:05.819Z,16.81
2017-09-03T09:11:05.846Z,17.29
2017-09-03T09:12:05.862Z,17.27
2017-09-03T09:13:05.887Z,17.56
2017-09-03T09:14:05.909Z,18
2017-09-03T09:15:05.948Z,18.26
2017-09-03T09:16:05.968Z,18.23
2017-09-03T09:17:06.339Z,18.15
2017-09-03T09:18:06.003Z,18.38
2017-09-03T09:19:06.027Z,19.37
2017-09-03T09:20:06.363Z,19.73
2017-09-03T09:21:06.393Z,19.69
2017-09-03T09:22:06.095Z,19.91
2017-09-03T09:23:06.146Z,20.65
2017-09-03T09:24:06.166Z,21
2017-09-03T09:25:06.170Z,21.37
2017-09-03T09:26:06.216Z,21.77
2017-09-03T09:27:06.235Z,22.43
2017-09-03T09:28:06.275Z,22.8
2017-09-03T09:29:06.279Z,22.94
2017-09-03T09:30:06.624Z,21.98
2017-09-03T09:31:06.322Z,20.84
2017-09-03T09:32:06.406Z,20.16
2017-09-03T09:33:06.372Z,19.59
2017-09-03T09:34:06.400Z,18.92
2017-09-03T09:35:06.435Z,18.65
2017-09-03T09:36:06.453Z,18.53
2017-09-03T09:37:06.800Z,19.52
2017-09-03T09:38:06.828Z,20.41
2017-09-03T09:39:06.530Z,20.6
2017-09-03T09:40:06.560Z,21.61
2017-09-03T09:41:06.634Z,23.23
2017-09-03T09:42:06.612Z,24.26
2017-09-03T09:43:06.634Z,23.93
2017-09-03T09:44:06.673Z,22.55
2017-09-03T09:45:06.682Z,21.5
2017-09-03T09:46:06.708Z,20.77
2017-09-03T09:47:06.743Z,20.51
2017-09-03T09:48:07.074Z,19.58
2017-09-03T09:49:06.796Z,19.34
2017-09-03T09:50:06.824Z,18.98
2017-09-03T09:51:06.896Z,18.66
2017-09-03T09:52:06.865Z,18.47
2017-09-03T09:53:06.889Z,17.74
2017-09-03T09:54:06.924Z,17.8
2017-09-03T09:55:07.268Z,17.48
2017-09-03T09:56:06.977Z,17.48
2017-09-03T09:57:06.992Z,17.54
2017-09-03T09:58:07.017Z,17.54
2017-09-03T09:59:07.041Z,17.6
2017-09-03T10:00:07.387Z,17.46
2017-09-03T10:01:07.120Z,17.27
2017-09-03T10:02:07.119Z,16.96
2017-09-03T10:03:07.144Z,16.89
2017-09-03T10:04:07.165Z,16.78
2017-09-03T10:05:07.506Z,16.68
2017-09-03T10:06:07.217Z,16.6
2017-09-03T10:07:07.238Z,16.58
2017-09-03T10:08:08.582Z,16.38
2017-09-03T10:09:07.289Z,16.36
2017-09-03T10:10:07.324Z,16.33
2017-09-03T10:11:07.344Z,16.23
2017-09-03T10:12:07.384Z,16.21
2017-09-03T10:13:07.388Z,16.28
2017-09-03T10:14:07.423Z,16.17
2017-09-03T10:15:07.433Z,16.21
2017-09-03T10:16:07.462Z,16.17
2017-09-03T10:17:07.482Z,16.26
2017-09-03T10:18:07.526Z,16.31
2017-09-03T10:19:07.542Z,16.39
2017-09-03T10:20:07.873Z,16.56
2017-09-03T10:21:07.579Z,16.64
2017-09-03T10:22:07.602Z,16.93
2017-09-03T10:23:07.627Z,19.56
2017-09-03T10:24:07.651Z,22.2
2017-09-03T10:25:07.777Z,24.17
2017-09-03T10:26:08.010Z,25.44
2017-09-03T10:27:07.727Z,26.55
2017-09-03T10:28:07.749Z,27.63
2017-09-03T10:29:07.989Z,28.49
2017-09-03T10:30:07.805Z,29.49
2017-09-03T10:31:07.826Z,28.12
2017-09-03T10:32:07.852Z,25.54
2017-09-03T10:33:07.881Z,23.5
2017-09-03T10:34:07.923Z,22.32
2017-09-03T10:35:08.254Z,21.54
2017-09-03T10:36:07.958Z,21.25
2017-09-03T10:37:08.026Z,20.47
2017-09-03T10:38:08.014Z,22.13
2017-09-03T10:39:08.052Z,24.33
2017-09-03T10:40:08.122Z,24.69
2017-09-03T10:41:08.112Z,23.61
2017-09-03T10:42:08.132Z,22.15
2017-09-03T10:43:08.155Z,21
2017-09-03T10:44:08.180Z,19.85
2017-09-03T10:45:08.213Z,19.16
2017-09-03T10:46:08.228Z,18.65
2017-09-03T10:47:08.261Z,17.86
2017-09-03T10:48:08.290Z,17.52
2017-09-03T10:49:08.319Z,17.26
2017-09-03T10:50:08.341Z,16.81
2017-09-03T10:51:08.359Z,16.75
2017-09-03T10:52:08.391Z,16.54
2017-09-03T10:53:08.418Z,16.54
2017-09-03T10:54:08.440Z,16.61
2017-09-03T10:55:08.470Z,16.79
2017-09-03T10:56:08.493Z,16.97
2017-09-03T10:57:08.565Z,16.89
2017-09-03T10:58:08.545Z,16.96
2017-09-03T10:59:08.575Z,17.33
2017-09-03T11:00:08.625Z,17.59
2017-09-03T11:01:08.615Z,18
2017-09-03T11:02:08.648Z,17.7
2017-09-03T11:03:08.981Z,17.79
2017-09-03T11:04:08.690Z,17.97
2017-09-03T11:05:08.714Z,17.57
2017-09-03T11:06:09.057Z,17.98
2017-09-03T11:07:09.073Z,18.28
2017-09-03T11:08:08.788Z,18.5
2017-09-03T11:09:08.812Z,18.77
2017-09-03T11:10:08.844Z,19.15
2017-09-03T11:11:08.866Z,19.99
2017-09-03T11:12:08.889Z,20.43
2017-09-03T11:13:08.915Z,22.38
2017-09-03T11:14:08.984Z,21.91
2017-09-03T11:15:08.979Z,21.89
2017-09-03T11:16:09.294Z,22.36
2017-09-03T11:17:09.012Z,22.62
2017-09-03T11:18:09.041Z,22.26
2017-09-03T11:19:09.071Z,21.93
2017-09-03T11:20:09.088Z,21.36
2017-09-03T11:21:09.121Z,20.84
2017-09-03T11:22:09.156Z,21.15
2017-09-03T11:23:09.163Z,21.58
2017-09-03T11:24:09.193Z,23.73
2017-09-03T11:25:09.216Z,25.72
2017-09-03T11:26:09.243Z,26.37
2017-09-03T11:27:09.264Z,27.37
2017-09-03T11:28:09.295Z,28.86
2017-09-03T11:29:09.336Z,30.08
2017-09-03T11:30:09.359Z,30.62
2017-09-03T11:31:09.385Z,31.42
2017-09-03T11:32:09.407Z,32.03
2017-09-03T11:33:10.077Z,32.7
2017-09-03T11:34:09.476Z,33.2
2017-09-03T11:35:09.494Z,32.36
2017-09-03T11:36:09.524Z,30.27
2017-09-03T11:37:09.559Z,28.67
2017-09-03T11:38:09.595Z,26.88
2017-09-03T11:39:09.638Z,25.35
2017-09-03T11:40:09.963Z,23.63
2017-09-03T11:41:09.678Z,22.48
2017-09-03T11:42:09.705Z,21.64
2017-09-03T11:43:09.752Z,20.55
2017-09-03T11:44:09.787Z,19.85
2017-09-03T11:45:09.791Z,19.54
2017-09-03T11:46:09.821Z,19.09
2017-09-03T11:47:10.216Z,18.65
2017-09-03T11:48:09.880Z,18.31
2017-09-03T11:49:09.924Z,18.15
2017-09-03T11:50:10.247Z,18
2017-09-03T11:51:09.963Z,17.83
2017-09-03T11:52:09.986Z,17.67
2017-09-03T11:53:10.009Z,17.54
2017-09-03T11:54:10.045Z,17.59
2017-09-03T11:55:10.070Z,17.67
2017-09-03T11:56:10.105Z,17.8
2017-09-03T11:57:10.125Z,17.79
2017-09-03T11:58:10.146Z,17.76
2017-09-03T11:59:10.177Z,17.83
2017-09-03T12:00:10.199Z,17.95
2017-09-03T12:01:10.219Z,18.15
2017-09-03T12:02:10.308Z,18.44
2017-09-03T12:03:10.592Z,18.6
2017-09-03T12:04:10.306Z,18.78
2017-09-03T12:05:10.340Z,19.14
2017-09-03T12:06:10.347Z,19.3
2017-09-03T12:07:10.383Z,19.51
2017-09-03T12:08:10.402Z,19.82
2017-09-03T12:09:10.430Z,20.77
2017-09-03T12:10:10.465Z,21.14
2017-09-03T12:11:10.483Z,21.46
2017-09-03T12:12:10.512Z,21.6
2017-09-03T12:13:10.867Z,21.83
2017-09-03T12:14:10.558Z,21.79
2017-09-03T12:15:10.586Z,22.02
2017-09-03T12:16:10.929Z,22.81
2017-09-03T12:17:10.955Z,24.29
2017-09-03T12:18:10.688Z,25.38
2017-09-03T12:19:10.693Z,25.73
2017-09-03T12:20:10.716Z,26.48
2017-09-03T12:21:10.949Z,27.74
2017-09-03T12:22:10.777Z,29.1
2017-09-03T12:23:10.811Z,29.86
2017-09-03T12:24:10.837Z,30.77
2017-09-03T12:25:10.884Z,31.46
2017-09-03T12:26:10.909Z,31.74
2017-09-03T12:27:10.944Z,32.04
2017-09-03T12:28:10.956Z,32.4
2017-09-03T12:29:11.289Z,32.78
2017-09-03T12:30:10.999Z,33.12
2017-09-03T12:31:11.029Z,33.2
2017-09-03T12:32:11.064Z,33.32
2017-09-03T12:33:11.101Z,33.11
2017-09-03T12:34:11.127Z,31.59
2017-09-03T12:35:11.162Z,30.87
2017-09-03T12:36:11.183Z,30.23
2017-09-03T12:37:11.216Z,29.12
2017-09-03T12:38:11.298Z,29.53
2017-09-03T12:39:11.288Z,30.4
2017-09-03T12:40:11.308Z,30.37
2017-09-03T12:41:11.344Z,29.02
2017-09-03T12:42:11.379Z,27.71
2017-09-03T12:43:11.463Z,27.11
2017-09-03T12:44:11.442Z,26.28
2017-09-03T12:45:11.467Z,25.7
2017-09-03T12:46:11.498Z,26.25
2017-09-03T12:47:11.860Z,26.29
2017-09-03T12:48:11.561Z,27.14
2017-09-03T12:49:11.601Z,28.38
2017-09-03T12:50:11.624Z,29.49
2017-09-03T12:51:11.973Z,30.21
2017-09-03T12:52:11.689Z,31.44
2017-09-03T12:53:11.769Z,32.3
2017-09-03T12:54:11.756Z,33.32
2017-09-03T12:55:11.794Z,33.98
2017-09-03T12:56:12.129Z,34.17